sensor_id;sensor_type;location;lat;lon;timestamp;temperature;humidity
7648;DHT22;3866;48.020;11.720;2023-07-09T00:02:14;18.60;99.90
7648;DHT22;3866;48.020;11.720;2023-07-09T00:04:41;18.50;99.90
7648;DHT22;3866;48.020;11.720;2023-07-09T00:07:15;18.60;99.90
7648;DHT22;3866;48.020;11.720;2023-07-09T00:09:45;18.50;99.90
7648;DHT22;3866;48.020;11.720;2023-07-09T00:12:17;18.50;99.90
7648;DHT22;3866;48.020;11.720;2023-07-09T00:14:44;18.40;99.90
7648;DHT22;3866;48.020;11.720;2023-07-09T00:17:18;18.30;99.90
7648;DHT22;3866;48.020;11.720;2023-07-09T00:19:45;18.20;99.90
7648;DHT22;3866;48.020;11.720;2023-07-09T00:22:14;18.10;99.90
7648;DHT22;3866;48.020;11.720;2023-07-09T00:24:44;18.10;99.90
7648;DHT22;3866;48.020;11.720;2023-07-09T00:27:12;18.10;99.90
7648;DHT22;3866;48.020;11.720;2023-07-09T00:29:40;18.10;99.90
7648;DHT22;3866;48.020;11.720;2023-07-09T00:32:12;18.10;99.90
7648;DHT22;3866;48.020;11.720;2023-07-09T00:34:41;18.10;99.90
7648;DHT22;3866;48.020;11.720;2023-07-09T00:37:11;18.10;99.90
7648;DHT22;3866;48.020;11.720;2023-07-09T00:39:39;18.00;99.90
7648;DHT22;3866;48.020;11.720;2023-07-09T00:42:12;18.00;99.90
7648;DHT22;3866;48.020;11.720;2023-07-09T00:44:40;18.00;99.90
7648;DHT22;3866;48.020;11.720;2023-07-09T00:47:21;18.00;99.90
7648;DHT22;3866;48.020;11.720;2023-07-09T00:49:55;18.10;99.90
7648;DHT22;3866;48.020;11.720;2023-07-09T00:52:31;18.20;99.90
7648;DHT22;3866;48.020;11.720;2023-07-09T00:55:04;18.20;99.90
7648;DHT22;3866;48.020;11.720;2023-07-09T00:57:36;18.30;99.90
7648;DHT22;3866;48.020;11.720;2023-07-09T01:00:07;18.30;99.90
7648;DHT22;3866;48.020;11.720;2023-07-09T01:02:37;18.40;99.90
7648;DHT22;3866;48.020;11.720;2023-07-09T01:05:04;18.40;99.90
7648;DHT22;3866;48.020;11.720;2023-07-09T01:07:31;18.40;99.90
7648;DHT22;3866;48.020;11.720;2023-07-09T01:09:58;18.40;99.90
7648;DHT22;3866;48.020;11.720;2023-07-09T01:12:25;18.40;99.90
7648;DHT22;3866;48.020;11.720;2023-07-09T01:14:55;18.40;99.90
7648;DHT22;3866;48.020;11.720;2023-07-09T01:17:25;18.50;99.90
7648;DHT22;3866;48.020;11.720;2023-07-09T01:19:54;18.50;99.90
7648;DHT22;3866;48.020;11.720;2023-07-09T01:22:23;18.60;99.90
7648;DHT22;3866;48.020;11.720;2023-07-09T01:24:54;18.70;99.90
7648;DHT22;3866;48.020;11.720;2023-07-09T01:27:24;18.60;99.90
7648;DHT22;3866;48.020;11.720;2023-07-09T01:29:52;18.50;99.90
7648;DHT22;3866;48.020;11.720;2023-07-09T01:32:20;18.30;99.90
7648;DHT22;3866;48.020;11.720;2023-07-09T01:34:49;18.20;99.90
7648;DHT22;3866;48.020;11.720;2023-07-09T01:37:20;18.10;99.90
7648;DHT22;3866;48.020;11.720;2023-07-09T01:39:49;18.10;99.90
7648;DHT22;3866;48.020;11.720;2023-07-09T01:42:16;18.00;99.90
7648;DHT22;3866;48.020;11.720;2023-07-09T01:44:44;18.00;99.90
7648;DHT22;3866;48.020;11.720;2023-07-09T01:47:11;17.90;99.90
7648;DHT22;3866;48.020;11.720;2023-07-09T01:49:38;17.80;99.90
7648;DHT22;3866;48.020;11.720;2023-07-09T01:52:07;17.80;99.90
7648;DHT22;3866;48.020;11.720;2023-07-09T01:54:35;17.90;99.90
7648;DHT22;3866;48.020;11.720;2023-07-09T01:57:18;17.90;99.90
7648;DHT22;3866;48.020;11.720;2023-07-09T01:59:49;17.90;99.90
7648;DHT22;3866;48.020;11.720;2023-07-09T02:02:16;18.00;99.90
7648;DHT22;3866;48.020;11.720;2023-07-09T02:04:50;17.90;99.90
7648;DHT22;3866;48.020;11.720;2023-07-09T02:07:18;18.00;99.90
7648;DHT22;3866;48.020;11.720;2023-07-09T02:09:45;18.00;99.90
7648;DHT22;3866;48.020;11.720;2023-07-09T02:12:14;18.00;99.90
7648;DHT22;3866;48.020;11.720;2023-07-09T02:14:43;17.90;99.90
7648;DHT22;3866;48.020;11.720;2023-07-09T02:17:11;17.80;99.90
7648;DHT22;3866;48.020;11.720;2023-07-09T02:19:38;17.60;99.90
7648;DHT22;3866;48.020;11.720;2023-07-09T02:22:06;17.60;99.90
7648;DHT22;3866;48.020;11.720;2023-07-09T02:24:34;17.50;99.90
7648;DHT22;3866;48.020;11.720;2023-07-09T02:27:05;17.60;99.90
7648;DHT22;3866;48.020;11.720;2023-07-09T02:29:32;17.60;99.90
7648;DHT22;3866;48.020;11.720;2023-07-09T02:32:01;17.50;99.90
7648;DHT22;3866;48.020;11.720;2023-07-09T02:34:29;17.50;99.90
7648;DHT22;3866;48.020;11.720;2023-07-09T02:36:58;17.50;99.90
7648;DHT22;3866;48.020;11.720;2023-07-09T02:39:25;17.50;99.90
7648;DHT22;3866;48.020;11.720;2023-07-09T02:41:52;17.40;99.90
7648;DHT22;3866;48.020;11.720;2023-07-09T02:44:19;17.30;99.90
7648;DHT22;3866;48.020;11.720;2023-07-09T02:46:46;17.20;99.90
7648;DHT22;3866;48.020;11.720;2023-07-09T02:49:15;17.10;99.90
7648;DHT22;3866;48.020;11.720;2023-07-09T02:51:42;17.10;99.90
7648;DHT22;3866;48.020;11.720;2023-07-09T02:54:08;17.10;99.90
7648;DHT22;3866;48.020;11.720;2023-07-09T02:56:35;17.10;99.90
7648;DHT22;3866;48.020;11.720;2023-07-09T02:59:02;17.10;99.90
7648;DHT22;3866;48.020;11.720;2023-07-09T03:01:30;17.10;99.90
7648;DHT22;3866;48.020;11.720;2023-07-09T03:04:00;17.10;99.90
7648;DHT22;3866;48.020;11.720;2023-07-09T03:06:31;17.10;99.90
7648;DHT22;3866;48.020;11.720;2023-07-09T03:08:59;17.00;99.90
7648;DHT22;3866;48.020;11.720;2023-07-09T03:11:28;16.80;99.90
7648;DHT22;3866;48.020;11.720;2023-07-09T03:13:55;16.60;99.90
7648;DHT22;3866;48.020;11.720;2023-07-09T03:16:22;16.40;99.90
7648;DHT22;3866;48.020;11.720;2023-07-09T03:18:49;16.20;99.90
7648;DHT22;3866;48.020;11.720;2023-07-09T03:21:15;16.00;99.90
7648;DHT22;3866;48.020;11.720;2023-07-09T03:23:44;16.00;99.90
7648;DHT22;3866;48.020;11.720;2023-07-09T03:26:11;16.00;99.90
7648;DHT22;3866;48.020;11.720;2023-07-09T03:28:38;16.10;99.90
7648;DHT22;3866;48.020;11.720;2023-07-09T03:31:05;16.20;99.90
7648;DHT22;3866;48.020;11.720;2023-07-09T03:33:32;16.10;99.90
7648;DHT22;3866;48.020;11.720;2023-07-09T03:35:58;16.20;99.90
7648;DHT22;3866;48.020;11.720;2023-07-09T03:38:25;16.10;99.90
7648;DHT22;3866;48.020;11.720;2023-07-09T03:40:54;16.20;99.90
7648;DHT22;3866;48.020;11.720;2023-07-09T03:43:22;16.20;99.90
7648;DHT22;3866;48.020;11.720;2023-07-09T03:45:50;16.20;99.90
7648;DHT22;3866;48.020;11.720;2023-07-09T03:48:18;16.20;99.90
7648;DHT22;3866;48.020;11.720;2023-07-09T03:50:47;16.20;99.90
7648;DHT22;3866;48.020;11.720;2023-07-09T03:53:15;16.30;99.90
7648;DHT22;3866;48.020;11.720;2023-07-09T03:55:42;16.30;99.90
7648;DHT22;3866;48.020;11.720;2023-07-09T03:58:12;16.30;99.90
7648;DHT22;3866;48.020;11.720;2023-07-09T04:00:39;16.30;99.90
7648;DHT22;3866;48.020;11.720;2023-07-09T04:03:06;16.40;99.90
7648;DHT22;3866;48.020;11.720;2023-07-09T04:05:34;16.40;99.90
7648;DHT22;3866;48.020;11.720;2023-07-09T04:08:01;16.50;99.90
7648;DHT22;3866;48.020;11.720;2023-07-09T04:10:28;16.50;99.90
7648;DHT22;3866;48.020;11.720;2023-07-09T04:12:55;16.50;99.90
7648;DHT22;3866;48.020;11.720;2023-07-09T04:15:23;16.60;99.90
7648;DHT22;3866;48.020;11.720;2023-07-09T04:17:49;16.60;99.90
7648;DHT22;3866;48.020;11.720;2023-07-09T04:20:17;16.60;99.90
7648;DHT22;3866;48.020;11.720;2023-07-09T04:22:44;16.70;99.90
7648;DHT22;3866;48.020;11.720;2023-07-09T04:25:12;16.80;99.90
7648;DHT22;3866;48.020;11.720;2023-07-09T04:27:39;16.90;99.90
7648;DHT22;3866;48.020;11.720;2023-07-09T04:30:09;16.90;99.90
7648;DHT22;3866;48.020;11.720;2023-07-09T04:32:38;17.00;99.90
7648;DHT22;3866;48.020;11.720;2023-07-09T04:35:05;17.10;99.90
7648;DHT22;3866;48.020;11.720;2023-07-09T04:37:32;17.10;99.90
7648;DHT22;3866;48.020;11.720;2023-07-09T04:39:59;17.20;99.90
7648;DHT22;3866;48.020;11.720;2023-07-09T04:42:27;17.30;99.90
7648;DHT22;3866;48.020;11.720;2023-07-09T04:44:53;17.40;99.90
7648;DHT22;3866;48.020;11.720;2023-07-09T04:47:20;17.50;99.90
7648;DHT22;3866;48.020;11.720;2023-07-09T04:49:48;17.60;99.90
7648;DHT22;3866;48.020;11.720;2023-07-09T04:52:15;17.70;99.90
7648;DHT22;3866;48.020;11.720;2023-07-09T04:54:42;17.80;99.90
7648;DHT22;3866;48.020;11.720;2023-07-09T04:57:10;17.90;99.90
7648;DHT22;3866;48.020;11.720;2023-07-09T04:59:37;17.90;99.90
7648;DHT22;3866;48.020;11.720;2023-07-09T05:02:05;18.10;99.90
7648;DHT22;3866;48.020;11.720;2023-07-09T05:04:32;18.20;99.90
7648;DHT22;3866;48.020;11.720;2023-07-09T05:07:00;18.50;99.90
7648;DHT22;3866;48.020;11.720;2023-07-09T05:09:27;18.70;99.90
7648;DHT22;3866;48.020;11.720;2023-07-09T05:11:55;18.80;99.90
7648;DHT22;3866;48.020;11.720;2023-07-09T05:14:22;19.00;99.90
7648;DHT22;3866;48.020;11.720;2023-07-09T05:16:49;19.40;99.90
7648;DHT22;3866;48.020;11.720;2023-07-09T05:19:15;19.80;99.90
7648;DHT22;3866;48.020;11.720;2023-07-09T05:21:42;20.00;99.90
7648;DHT22;3866;48.020;11.720;2023-07-09T05:24:11;20.10;99.90
7648;DHT22;3866;48.020;11.720;2023-07-09T05:26:38;20.30;99.90
7648;DHT22;3866;48.020;11.720;2023-07-09T05:29:05;20.50;99.90
7648;DHT22;3866;48.020;11.720;2023-07-09T05:31:32;20.80;99.90
7648;DHT22;3866;48.020;11.720;2023-07-09T05:33:59;20.80;99.90
7648;DHT22;3866;48.020;11.720;2023-07-09T05:36:27;20.80;99.90
7648;DHT22;3866;48.020;11.720;2023-07-09T05:38:54;20.80;99.90
7648;DHT22;3866;48.020;11.720;2023-07-09T05:41:23;20.90;99.90
7648;DHT22;3866;48.020;11.720;2023-07-09T05:43:50;21.10;99.90
7648;DHT22;3866;48.020;11.720;2023-07-09T05:46:18;21.20;99.90
7648;DHT22;3866;48.020;11.720;2023-07-09T05:48:45;21.30;99.90
7648;DHT22;3866;48.020;11.720;2023-07-09T05:51:12;21.50;99.90
7648;DHT22;3866;48.020;11.720;2023-07-09T05:53:39;21.90;99.90
7648;DHT22;3866;48.020;11.720;2023-07-09T05:56:06;22.20;99.90
7648;DHT22;3866;48.020;11.720;2023-07-09T05:58:34;22.40;99.90
7648;DHT22;3866;48.020;11.720;2023-07-09T06:01:01;22.60;99.90
7648;DHT22;3866;48.020;11.720;2023-07-09T06:03:29;22.50;99.90
7648;DHT22;3866;48.020;11.720;2023-07-09T06:05:57;22.50;99.90
7648;DHT22;3866;48.020;11.720;2023-07-09T06:08:24;22.60;99.90
7648;DHT22;3866;48.020;11.720;2023-07-09T06:10:55;22.60;99.90
7648;DHT22;3866;48.020;11.720;2023-07-09T06:13:23;22.70;99.90
7648;DHT22;3866;48.020;11.720;2023-07-09T06:15:52;22.80;99.90
7648;DHT22;3866;48.020;11.720;2023-07-09T06:18:20;23.00;99.90
7648;DHT22;3866;48.020;11.720;2023-07-09T06:20:48;23.20;99.90
7648;DHT22;3866;48.020;11.720;2023-07-09T06:23:15;23.30;99.90
7648;DHT22;3866;48.020;11.720;2023-07-09T06:25:42;23.30;99.90
7648;DHT22;3866;48.020;11.720;2023-07-09T06:28:13;23.50;99.90
7648;DHT22;3866;48.020;11.720;2023-07-09T06:30:39;23.60;99.90
7648;DHT22;3866;48.020;11.720;2023-07-09T06:33:08;23.80;99.90
7648;DHT22;3866;48.020;11.720;2023-07-09T06:35:35;23.90;99.90
7648;DHT22;3866;48.020;11.720;2023-07-09T06:38:01;24.00;99.90
7648;DHT22;3866;48.020;11.720;2023-07-09T06:40:28;24.10;99.90
7648;DHT22;3866;48.020;11.720;2023-07-09T06:42:55;24.30;99.90
7648;DHT22;3866;48.020;11.720;2023-07-09T06:45:23;24.50;99.90
7648;DHT22;3866;48.020;11.720;2023-07-09T06:47:50;24.50;99.90
7648;DHT22;3866;48.020;11.720;2023-07-09T06:50:18;24.60;99.90
7648;DHT22;3866;48.020;11.720;2023-07-09T06:52:45;24.60;99.90
7648;DHT22;3866;48.020;11.720;2023-07-09T06:55:12;24.80;99.90
7648;DHT22;3866;48.020;11.720;2023-07-09T06:57:38;25.10;99.90
7648;DHT22;3866;48.020;11.720;2023-07-09T07:00:06;25.20;99.90
7648;DHT22;3866;48.020;11.720;2023-07-09T07:02:33;25.40;99.90
7648;DHT22;3866;48.020;11.720;2023-07-09T07:05:00;25.70;99.90
7648;DHT22;3866;48.020;11.720;2023-07-09T07:07:29;26.00;99.90
7648;DHT22;3866;48.020;11.720;2023-07-09T07:09:55;26.20;99.90
7648;DHT22;3866;48.020;11.720;2023-07-09T07:12:24;26.20;99.90
7648;DHT22;3866;48.020;11.720;2023-07-09T07:14:52;26.40;99.90
7648;DHT22;3866;48.020;11.720;2023-07-09T07:17:19;26.70;99.90
7648;DHT22;3866;48.020;11.720;2023-07-09T07:19:46;26.90;99.90
7648;DHT22;3866;48.020;11.720;2023-07-09T07:22:13;27.30;99.90
7648;DHT22;3866;48.020;11.720;2023-07-09T07:24:41;27.30;99.90
7648;DHT22;3866;48.020;11.720;2023-07-09T07:27:08;27.10;99.90
7648;DHT22;3866;48.020;11.720;2023-07-09T07:29:35;27.40;99.90
7648;DHT22;3866;48.020;11.720;2023-07-09T07:32:02;27.50;99.90
7648;DHT22;3866;48.020;11.720;2023-07-09T07:34:29;28.10;99.90
7648;DHT22;3866;48.020;11.720;2023-07-09T07:36:56;28.80;99.90
7648;DHT22;3866;48.020;11.720;2023-07-09T07:39:23;28.60;99.90
7648;DHT22;3866;48.020;11.720;2023-07-09T07:41:51;28.80;99.90
7648;DHT22;3866;48.020;11.720;2023-07-09T07:44:18;29.10;99.90
7648;DHT22;3866;48.020;11.720;2023-07-09T07:46:45;29.20;99.90
7648;DHT22;3866;48.020;11.720;2023-07-09T07:49:12;29.20;99.90
7648;DHT22;3866;48.020;11.720;2023-07-09T07:51:39;29.70;99.90
7648;DHT22;3866;48.020;11.720;2023-07-09T07:54:07;29.60;99.90
7648;DHT22;3866;48.020;11.720;2023-07-09T07:56:35;29.80;99.90
7648;DHT22;3866;48.020;11.720;2023-07-09T07:59:03;29.70;99.90
7648;DHT22;3866;48.020;11.720;2023-07-09T08:01:30;29.80;99.90
7648;DHT22;3866;48.020;11.720;2023-07-09T08:03:58;29.60;99.90
7648;DHT22;3866;48.020;11.720;2023-07-09T08:06:25;29.40;99.90
7648;DHT22;3866;48.020;11.720;2023-07-09T08:08:52;30.60;99.90
7648;DHT22;3866;48.020;11.720;2023-07-09T08:11:18;30.90;99.90
7648;DHT22;3866;48.020;11.720;2023-07-09T08:13:45;30.60;99.90
7648;DHT22;3866;48.020;11.720;2023-07-09T08:16:13;30.80;99.90
7648;DHT22;3866;48.020;11.720;2023-07-09T08:18:40;31.90;99.90
7648;DHT22;3866;48.020;11.720;2023-07-09T08:21:07;31.60;99.90
7648;DHT22;3866;48.020;11.720;2023-07-09T08:23:34;31.40;99.90
7648;DHT22;3866;48.020;11.720;2023-07-09T08:26:02;30.30;99.90
7648;DHT22;3866;48.020;11.720;2023-07-09T08:28:30;29.50;99.90
7648;DHT22;3866;48.020;11.720;2023-07-09T08:30:57;29.90;99.90
7648;DHT22;3866;48.020;11.720;2023-07-09T08:33:26;30.20;99.90
7648;DHT22;3866;48.020;11.720;2023-07-09T08:35:54;31.60;99.90
7648;DHT22;3866;48.020;11.720;2023-07-09T08:38:21;32.30;99.90
7648;DHT22;3866;48.020;11.720;2023-07-09T08:40:57;32.20;99.90
7648;DHT22;3866;48.020;11.720;2023-07-09T08:43:38;31.70;99.90
7648;DHT22;3866;48.020;11.720;2023-07-09T08:46:13;31.70;99.90
7648;DHT22;3866;48.020;11.720;2023-07-09T08:48:46;32.00;99.90
7648;DHT22;3866;48.020;11.720;2023-07-09T08:51:18;31.60;99.90
7648;DHT22;3866;48.020;11.720;2023-07-09T08:53:49;31.40;99.90
7648;DHT22;3866;48.020;11.720;2023-07-09T08:56:17;31.50;99.90
7648;DHT22;3866;48.020;11.720;2023-07-09T08:58:46;32.00;99.90
7648;DHT22;3866;48.020;11.720;2023-07-09T09:01:18;32.60;99.90
7648;DHT22;3866;48.020;11.720;2023-07-09T09:03:49;33.20;99.90
7648;DHT22;3866;48.020;11.720;2023-07-09T09:06:19;32.50;99.90
7648;DHT22;3866;48.020;11.720;2023-07-09T09:08:57;31.80;99.90
7648;DHT22;3866;48.020;11.720;2023-07-09T09:11:31;32.20;99.90
7648;DHT22;3866;48.020;11.720;2023-07-09T09:14:05;32.30;99.90
7648;DHT22;3866;48.020;11.720;2023-07-09T09:16:35;32.00;99.90
7648;DHT22;3866;48.020;11.720;2023-07-09T09:19:20;32.40;99.90
7648;DHT22;3866;48.020;11.720;2023-07-09T09:21:50;32.50;99.90
7648;DHT22;3866;48.020;11.720;2023-07-09T09:24:27;32.00;99.90
7648;DHT22;3866;48.020;11.720;2023-07-09T09:26:58;31.60;99.90
7648;DHT22;3866;48.020;11.720;2023-07-09T09:29:26;30.80;99.90
7648;DHT22;3866;48.020;11.720;2023-07-09T09:31:55;31.50;99.90
7648;DHT22;3866;48.020;11.720;2023-07-09T09:34:27;31.90;99.90
7648;DHT22;3866;48.020;11.720;2023-07-09T09:36:54;30.50;99.90
7648;DHT22;3866;48.020;11.720;2023-07-09T09:39:23;30.10;99.90
7648;DHT22;3866;48.020;11.720;2023-07-09T09:41:53;31.10;99.90
7648;DHT22;3866;48.020;11.720;2023-07-09T09:44:25;31.00;99.90
7648;DHT22;3866;48.020;11.720;2023-07-09T09:46:52;30.70;99.90
7648;DHT22;3866;48.020;11.720;2023-07-09T09:49:19;31.40;99.90
7648;DHT22;3866;48.020;11.720;2023-07-09T09:51:48;31.20;99.90
7648;DHT22;3866;48.020;11.720;2023-07-09T09:54:19;31.10;99.90
7648;DHT22;3866;48.020;11.720;2023-07-09T09:56:48;31.30;99.90
7648;DHT22;3866;48.020;11.720;2023-07-09T09:59:18;31.30;99.90
7648;DHT22;3866;48.020;11.720;2023-07-09T10:01:45;31.10;99.90
7648;DHT22;3866;48.020;11.720;2023-07-09T10:04:19;30.90;99.90
7648;DHT22;3866;48.020;11.720;2023-07-09T10:06:51;30.80;99.90
7648;DHT22;3866;48.020;11.720;2023-07-09T10:09:27;30.20;99.90
7648;DHT22;3866;48.020;11.720;2023-07-09T10:12:03;29.70;99.90
7648;DHT22;3866;48.020;11.720;2023-07-09T10:14:34;30.30;99.90
7648;DHT22;3866;48.020;11.720;2023-07-09T10:17:22;30.40;99.90
7648;DHT22;3866;48.020;11.720;2023-07-09T10:19:56;30.60;99.90
7648;DHT22;3866;48.020;11.720;2023-07-09T10:22:39;30.40;99.90
7648;DHT22;3866;48.020;11.720;2023-07-09T10:25:16;30.40;99.90
7648;DHT22;3866;48.020;11.720;2023-07-09T10:27:58;30.20;99.90
7648;DHT22;3866;48.020;11.720;2023-07-09T10:30:41;30.20;99.90
7648;DHT22;3866;48.020;11.720;2023-07-09T10:33:10;30.50;99.90
7648;DHT22;3866;48.020;11.720;2023-07-09T10:35:40;30.40;99.90
7648;DHT22;3866;48.020;11.720;2023-07-09T10:38:32;30.40;99.90
7648;DHT22;3866;48.020;11.720;2023-07-09T10:41:02;30.30;99.90
7648;DHT22;3866;48.020;11.720;2023-07-09T10:43:36;30.70;99.90
7648;DHT22;3866;48.020;11.720;2023-07-09T10:46:10;30.80;99.90
7648;DHT22;3866;48.020;11.720;2023-07-09T10:48:39;30.70;99.90
7648;DHT22;3866;48.020;11.720;2023-07-09T10:51:16;30.70;99.90
7648;DHT22;3866;48.020;11.720;2023-07-09T10:53:49;30.70;99.90
7648;DHT22;3866;48.020;11.720;2023-07-09T10:56:20;30.70;99.90
7648;DHT22;3866;48.020;11.720;2023-07-09T10:58:52;30.60;99.90
7648;DHT22;3866;48.020;11.720;2023-07-09T11:01:27;30.70;99.90
7648;DHT22;3866;48.020;11.720;2023-07-09T11:03:59;30.50;99.90
7648;DHT22;3866;48.020;11.720;2023-07-09T11:06:33;30.40;99.90
7648;DHT22;3866;48.020;11.720;2023-07-09T11:09:05;30.20;99.90
7648;DHT22;3866;48.020;11.720;2023-07-09T11:11:36;30.40;99.90
7648;DHT22;3866;48.020;11.720;2023-07-09T11:14:08;30.60;99.90
7648;DHT22;3866;48.020;11.720;2023-07-09T11:16:39;30.60;99.90
7648;DHT22;3866;48.020;11.720;2023-07-09T11:19:13;30.70;99.90
7648;DHT22;3866;48.020;11.720;2023-07-09T11:21:45;30.60;99.90
7648;DHT22;3866;48.020;11.720;2023-07-09T11:24:32;30.80;99.90
7648;DHT22;3866;48.020;11.720;2023-07-09T11:26:59;30.70;99.90
7648;DHT22;3866;48.020;11.720;2023-07-09T11:29:27;30.60;99.90
7648;DHT22;3866;48.020;11.720;2023-07-09T11:31:55;30.90;99.90
7648;DHT22;3866;48.020;11.720;2023-07-09T11:34:27;31.00;99.90
7648;DHT22;3866;48.020;11.720;2023-07-09T11:36:58;31.10;99.90
7648;DHT22;3866;48.020;11.720;2023-07-09T11:39:30;30.90;99.90
7648;DHT22;3866;48.020;11.720;2023-07-09T11:41:58;31.00;99.90
7648;DHT22;3866;48.020;11.720;2023-07-09T11:44:26;30.90;99.90
7648;DHT22;3866;48.020;11.720;2023-07-09T11:47:04;31.10;99.90
7648;DHT22;3866;48.020;11.720;2023-07-09T11:49:42;31.30;99.90
7648;DHT22;3866;48.020;11.720;2023-07-09T11:52:11;32.00;99.90
7648;DHT22;3866;48.020;11.720;2023-07-09T11:54:41;31.80;99.90
7648;DHT22;3866;48.020;11.720;2023-07-09T11:57:11;32.00;99.80
7648;DHT22;3866;48.020;11.720;2023-07-09T11:59:39;31.90;99.90
7648;DHT22;3866;48.020;11.720;2023-07-09T12:02:13;32.60;99.90
7648;DHT22;3866;48.020;11.720;2023-07-09T12:04:40;33.10;99.30
7648;DHT22;3866;48.020;11.720;2023-07-09T12:07:12;33.80;97.80
7648;DHT22;3866;48.020;11.720;2023-07-09T12:09:46;34.20;97.30
7648;DHT22;3866;48.020;11.720;2023-07-09T12:12:20;33.80;98.20
7648;DHT22;3866;48.020;11.720;2023-07-09T12:14:48;33.40;98.90
7648;DHT22;3866;48.020;11.720;2023-07-09T12:17:16;33.30;97.50
7648;DHT22;3866;48.020;11.720;2023-07-09T12:19:43;32.80;98.00
7648;DHT22;3866;48.020;11.720;2023-07-09T12:22:19;32.70;97.30
7648;DHT22;3866;48.020;11.720;2023-07-09T12:24:49;31.80;98.00
7648;DHT22;3866;48.020;11.720;2023-07-09T12:27:22;31.70;97.90
7648;DHT22;3866;48.020;11.720;2023-07-09T12:29:52;31.40;97.90
7648;DHT22;3866;48.020;11.720;2023-07-09T12:32:19;31.10;98.10
7648;DHT22;3866;48.020;11.720;2023-07-09T12:34:50;30.70;99.20
7648;DHT22;3866;48.020;11.720;2023-07-09T12:37:18;30.80;98.30
7648;DHT22;3866;48.020;11.720;2023-07-09T12:39:50;30.50;98.60
7648;DHT22;3866;48.020;11.720;2023-07-09T12:42:21;30.80;98.30
7648;DHT22;3866;48.020;11.720;2023-07-09T12:44:50;31.50;97.90
7648;DHT22;3866;48.020;11.720;2023-07-09T12:47:17;32.20;98.10
7648;DHT22;3866;48.020;11.720;2023-07-09T12:49:45;33.40;97.10
7648;DHT22;3866;48.020;11.720;2023-07-09T12:52:18;33.80;96.00
7648;DHT22;3866;48.020;11.720;2023-07-09T12:54:55;33.80;96.60
7648;DHT22;3866;48.020;11.720;2023-07-09T12:57:23;34.20;95.70
7648;DHT22;3866;48.020;11.720;2023-07-09T12:59:51;34.10;96.20
7648;DHT22;3866;48.020;11.720;2023-07-09T13:02:20;34.20;96.90
7648;DHT22;3866;48.020;11.720;2023-07-09T13:04:49;34.60;97.30
7648;DHT22;3866;48.020;11.720;2023-07-09T13:07:36;34.80;97.20
7648;DHT22;3866;48.020;11.720;2023-07-09T13:10:15;34.50;96.60
7648;DHT22;3866;48.020;11.720;2023-07-09T13:12:46;34.30;96.50
7648;DHT22;3866;48.020;11.720;2023-07-09T13:15:27;34.20;96.70
7648;DHT22;3866;48.020;11.720;2023-07-09T13:17:58;34.30;96.70
7648;DHT22;3866;48.020;11.720;2023-07-09T13:20:26;34.80;96.00
7648;DHT22;3866;48.020;11.720;2023-07-09T13:22:53;35.60;95.30
7648;DHT22;3866;48.020;11.720;2023-07-09T13:25:22;35.70;94.90
7648;DHT22;3866;48.020;11.720;2023-07-09T13:27:49;36.30;94.20
7648;DHT22;3866;48.020;11.720;2023-07-09T13:30:16;35.50;94.80
7648;DHT22;3866;48.020;11.720;2023-07-09T13:32:44;35.10;94.80
7648;DHT22;3866;48.020;11.720;2023-07-09T13:35:13;35.40;94.50
7648;DHT22;3866;48.020;11.720;2023-07-09T13:37:42;34.90;95.20
7648;DHT22;3866;48.020;11.720;2023-07-09T13:40:11;35.50;94.30
7648;DHT22;3866;48.020;11.720;2023-07-09T13:42:40;36.10;93.70
7648;DHT22;3866;48.020;11.720;2023-07-09T13:45:17;36.10;93.40
7648;DHT22;3866;48.020;11.720;2023-07-09T13:47:44;35.50;93.10
7648;DHT22;3866;48.020;11.720;2023-07-09T13:50:12;35.20;93.40
7648;DHT22;3866;48.020;11.720;2023-07-09T13:52:39;34.50;93.50
7648;DHT22;3866;48.020;11.720;2023-07-09T13:55:15;34.50;94.50
7648;DHT22;3866;48.020;11.720;2023-07-09T13:57:43;34.50;95.90
7648;DHT22;3866;48.020;11.720;2023-07-09T14:00:11;33.60;95.30
7648;DHT22;3866;48.020;11.720;2023-07-09T14:02:39;32.90;95.80
7648;DHT22;3866;48.020;11.720;2023-07-09T14:05:08;33.30;95.80
7648;DHT22;3866;48.020;11.720;2023-07-09T14:07:38;33.80;94.70
7648;DHT22;3866;48.020;11.720;2023-07-09T14:10:07;33.90;94.60
7648;DHT22;3866;48.020;11.720;2023-07-09T14:12:38;33.70;94.80
7648;DHT22;3866;48.020;11.720;2023-07-09T14:15:13;32.50;94.90
7648;DHT22;3866;48.020;11.720;2023-07-09T14:17:40;32.10;95.40
7648;DHT22;3866;48.020;11.720;2023-07-09T14:20:10;32.20;96.10
7648;DHT22;3866;48.020;11.720;2023-07-09T14:22:39;32.40;95.20
7648;DHT22;3866;48.020;11.720;2023-07-09T14:25:09;32.40;95.10
7648;DHT22;3866;48.020;11.720;2023-07-09T14:27:40;32.20;95.20
7648;DHT22;3866;48.020;11.720;2023-07-09T14:30:14;32.40;95.50
7648;DHT22;3866;48.020;11.720;2023-07-09T14:32:42;32.40;95.30
7648;DHT22;3866;48.020;11.720;2023-07-09T14:35:13;32.50;95.50
7648;DHT22;3866;48.020;11.720;2023-07-09T14:37:40;32.20;95.90
7648;DHT22;3866;48.020;11.720;2023-07-09T14:40:08;32.10;95.80
7648;DHT22;3866;48.020;11.720;2023-07-09T14:42:36;31.90;95.50
7648;DHT22;3866;48.020;11.720;2023-07-09T14:45:04;31.90;96.00
7648;DHT22;3866;48.020;11.720;2023-07-09T14:47:32;31.90;96.00
7648;DHT22;3866;48.020;11.720;2023-07-09T14:49:59;31.70;95.80
7648;DHT22;3866;48.020;11.720;2023-07-09T14:52:26;31.70;95.80
7648;DHT22;3866;48.020;11.720;2023-07-09T14:54:52;31.80;95.80
7648;DHT22;3866;48.020;11.720;2023-07-09T14:57:21;31.40;96.30
7648;DHT22;3866;48.020;11.720;2023-07-09T14:59:48;31.40;96.20
7648;DHT22;3866;48.020;11.720;2023-07-09T15:02:22;31.50;95.80
7648;DHT22;3866;48.020;11.720;2023-07-09T15:04:51;31.20;95.70
7648;DHT22;3866;48.020;11.720;2023-07-09T15:07:18;30.90;95.80
7648;DHT22;3866;48.020;11.720;2023-07-09T15:09:44;30.90;95.60
7648;DHT22;3866;48.020;11.720;2023-07-09T15:12:24;30.90;95.80
7648;DHT22;3866;48.020;11.720;2023-07-09T15:14:52;30.90;96.10
7648;DHT22;3866;48.020;11.720;2023-07-09T15:17:19;31.20;96.00
7648;DHT22;3866;48.020;11.720;2023-07-09T15:19:46;31.30;95.70
7648;DHT22;3866;48.020;11.720;2023-07-09T15:22:22;31.20;95.70
7648;DHT22;3866;48.020;11.720;2023-07-09T15:24:50;31.30;96.00
7648;DHT22;3866;48.020;11.720;2023-07-09T15:27:17;31.50;95.60
7648;DHT22;3866;48.020;11.720;2023-07-09T15:29:44;31.50;95.10
7648;DHT22;3866;48.020;11.720;2023-07-09T15:32:11;31.20;95.00
7648;DHT22;3866;48.020;11.720;2023-07-09T15:34:38;31.10;95.60
7648;DHT22;3866;48.020;11.720;2023-07-09T15:37:11;31.20;95.60
7648;DHT22;3866;48.020;11.720;2023-07-09T15:39:41;31.20;95.30
7648;DHT22;3866;48.020;11.720;2023-07-09T15:42:11;31.10;95.30
7648;DHT22;3866;48.020;11.720;2023-07-09T15:44:39;31.10;95.80
7648;DHT22;3866;48.020;11.720;2023-07-09T15:47:13;31.30;95.30
7648;DHT22;3866;48.020;11.720;2023-07-09T15:49:42;31.20;95.30
7648;DHT22;3866;48.020;11.720;2023-07-09T15:52:09;31.20;95.30
7648;DHT22;3866;48.020;11.720;2023-07-09T15:54:36;31.30;95.60
7648;DHT22;3866;48.020;11.720;2023-07-09T15:57:05;31.30;95.40
7648;DHT22;3866;48.020;11.720;2023-07-09T15:59:35;31.50;95.10